Main page
METAR-TAF:

METAR-TAF

Airports :

Durham, England

Durham Tees Valley Airport

latitude: 54-31N, longitude: 001-25W, elevation: 37 m

Current weather observation

The report was made 27 minutes ago, at 09:20 UTC
Wind 12 kt from the West, varying between West and Northwest
Temperature 17°C
Humidity 59%
Pressure 1020 hPa
Visibility 10 km or more
no clouds below 1500 m and no cumulonimbus

METAR: EGNV 200920Z 28012KT 260V320 CAVOK 17/09 Q1020

Time: 10:47 (09:47 UTC)

Forecast

The report was made 1 hour and 52 minutes ago, at 07:55 UTC
Forecast valid from 20 at 09 UTC to 20 at 18 UTC
Wind 7 kt from the West/Southwest
Visibility 10 km or more
Few clouds at a height of 4000 ft

TAF: EGNV 200755Z 2009/2018 25007KT 9999 FEW040

Weather observations and forecasts of more than 4000 airports (METAR and TAF reports).

The available stations are represented by yellow and red dots on the map.

Hover mouse over dot to see the name of the station.

Then click to see weather observations and forecasts.

To change the map : click on the green buttons with a black cross to zoom in, on the green button with a dash to zoom out, or on the green arrows for adjacent maps.


METAR-TAF: